Time;durP1;ratioP1;P1;durP2;ratioP2;P2;SDS_P1;SDS_P2;PMS_P1;PMS_P2;Temp;Humidity;BMP_temperature;BMP_pressure;BME280_temperature;BME280_humidity;BME280_pressure;Samples;Min_cycle;Max_cycle;Signal;HPM_P1;HPM_P2
2023/07/21 00:02:10;;;;;;;4.32;2.55;;;13.40;99.90;;;;;;5011995;28;20033;-45
2023/07/21 00:04:36;;;;;;;6.72;2.60;;;13.30;99.90;;;;;;5012104;28;20030;-45
2023/07/21 00:07:02;;;;;;;2.00;1.58;;;13.30;99.90;;;;;;5012323;28;20125;-44
2023/07/21 00:09:27;;;;;;;3.03;2.08;;;13.40;99.90;;;;;;5012378;28;20018;-45
2023/07/21 00:11:53;;;;;;;6.15;2.13;;;13.40;99.90;;;;;;5011937;28;20044;-45
2023/07/21 00:14:18;;;;;;;3.42;1.90;;;13.40;99.90;;;;;;5012308;28;20022;-46
2023/07/21 00:16:44;;;;;;;6.88;2.67;;;13.50;99.90;;;;;;5027303;28;20450;-45
2023/07/21 00:19:09;;;;;;;3.35;2.03;;;13.50;99.90;;;;;;5012051;28;20050;-45
2023/07/21 00:21:35;;;;;;;2.25;1.92;;;13.40;99.90;;;;;;5012021;28;20076;-46
2023/07/21 00:24:01;;;;;;;3.83;2.70;;;13.40;99.90;;;;;;5011888;28;20519;-45
2023/07/21 00:26:27;;;;;;;3.92;2.25;;;13.30;99.90;;;;;;5012242;28;20041;-45
2023/07/21 00:28:52;;;;;;;2.75;1.90;;;13.30;99.90;;;;;;5010500;28;20439;-45
2023/07/21 00:31:18;;;;;;;3.67;2.17;;;13.30;99.90;;;;;;5012122;28;20025;-45
2023/07/21 00:33:44;;;;;;;4.53;2.60;;;13.30;99.90;;;;;;5011490;28;20037;-46
2023/07/21 00:36:12;;;;;;;6.00;2.47;;;13.30;99.90;;;;;;5011713;28;20078;-45
2023/07/21 00:38:38;;;;;;;3.33;1.85;;;13.40;99.90;;;;;;5010658;28;20029;-46
2023/07/21 00:41:04;;;;;;;4.20;2.10;;;13.40;99.90;;;;;;5011677;28;20017;-45
2023/07/21 00:43:29;;;;;;;2.78;1.90;;;13.50;99.90;;;;;;5011600;28;20488;-45
2023/07/21 00:45:55;;;;;;;2.28;2.08;;;13.60;99.90;;;;;;5011765;28;20033;-44
2023/07/21 00:48:20;;;;;;;2.85;2.03;;;13.60;99.90;;;;;;5011489;28;20410;-45
2023/07/21 00:50:49;;;;;;;3.42;2.08;;;13.60;99.90;;;;;;5011422;28;20042;-46
2023/07/21 00:53:15;;;;;;;3.33;2.17;;;13.70;99.90;;;;;;5011071;28;20483;-46
2023/07/21 00:55:42;;;;;;;5.22;2.30;;;13.60;99.90;;;;;;5011337;28;20032;-46
2023/07/21 00:58:11;;;;;;;4.32;2.25;;;13.70;99.90;;;;;;5011520;28;20487;-45
2023/07/21 01:00:38;;;;;;;5.50;2.03;;;13.70;99.90;;;;;;5011322;28;20034;-45
2023/07/21 01:03:05;;;;;;;2.55;2.10;;;13.70;99.90;;;;;;5009975;28;20029;-44
2023/07/21 01:05:34;;;;;;;5.07;2.33;;;13.60;99.90;;;;;;5010340;28;20084;-47
2023/07/21 01:08:04;;;;;;;2.95;2.28;;;13.60;99.90;;;;;;5010865;28;20038;-46
2023/07/21 01:10:32;;;;;;;4.00;2.25;;;13.60;99.90;;;;;;5011295;28;20116;-46
2023/07/21 01:12:57;;;;;;;3.58;2.20;;;13.60;99.90;;;;;;5010575;28;20562;-46
2023/07/21 01:15:25;;;;;;;4.45;2.05;;;13.60;99.90;;;;;;5006085;28;20033;-46
2023/07/21 01:17:52;;;;;;;2.10;1.60;;;13.60;99.90;;;;;;5004548;28;20471;-44
2023/07/21 01:20:22;;;;;;;3.22;1.67;;;13.70;99.90;;;;;;5007931;28;20527;-47
2023/07/21 01:22:53;;;;;;;5.70;2.40;;;13.80;99.90;;;;;;5004544;28;20037;-45
2023/07/21 01:25:18;;;;;;;;;;;13.80;99.90;;;;;;5001816;28;20045;-45
2023/07/21 01:27:47;;;;;;;4.40;1.88;;;13.80;99.90;;;;;;5004053;28;20152;-44
2023/07/21 01:30:16;;;;;;;2.72;2.00;;;13.90;99.90;;;;;;5004120;28;20033;-45
2023/07/21 01:32:43;;;;;;;3.50;2.03;;;13.90;99.90;;;;;;5003237;28;20030;-47
2023/07/21 01:35:11;;;;;;;3.05;2.10;;;13.90;99.90;;;;;;5002559;28;20029;-45
2023/07/21 01:37:39;;;;;;;3.88;1.95;;;14.00;99.90;;;;;;5002230;28;20018;-45
2023/07/21 01:40:07;;;;;;;2.95;1.70;;;14.00;99.90;;;;;;5004890;28;20351;-45
2023/07/21 01:42:34;;;;;;;3.53;2.05;;;14.00;99.90;;;;;;5002775;28;20046;-45
2023/07/21 01:45:03;;;;;;;4.35;1.90;;;14.00;99.90;;;;;;5004600;28;20224;-45
2023/07/21 01:47:32;;;;;;;5.45;2.03;;;14.00;99.90;;;;;;5002122;28;20022;-46
2023/07/21 01:49:59;;;;;;;3.47;2.05;;;14.00;99.90;;;;;;5004687;28;20025;-46
2023/07/21 01:52:31;;;;;;;4.35;2.08;;;14.00;99.90;;;;;;5001518;28;20113;-44
2023/07/21 01:55:04;;;;;;;3.72;2.15;;;14.00;99.90;;;;;;5007527;28;20026;-45
2023/07/21 01:57:36;;;;;;;3.83;2.10;;;14.00;99.90;;;;;;5007982;28;20037;-46
2023/07/21 02:00:04;;;;;;;5.82;2.22;;;14.00;99.90;;;;;;5010530;28;20038;-45
2023/07/21 02:02:30;;;;;;;2.85;1.90;;;14.00;99.90;;;;;;5009836;28;20026;-45
2023/07/21 02:04:55;;;;;;;4.38;1.83;;;14.10;99.90;;;;;;5009959;28;20080;-45
2023/07/21 02:07:22;;;;;;;6.00;2.20;;;14.10;99.90;;;;;;5009598;28;20547;-45
2023/07/21 02:09:51;;;;;;;4.80;2.10;;;14.20;99.90;;;;;;5010277;28;20080;-46
2023/07/21 02:12:17;;;;;;;3.37;1.93;;;14.20;99.90;;;;;;5009566;28;20475;-45
2023/07/21 02:14:43;;;;;;;3.35;2.28;;;14.20;99.90;;;;;;5010291;28;20426;-46
2023/07/21 02:17:09;;;;;;;3.47;2.15;;;14.30;99.90;;;;;;5010245;28;20029;-44
2023/07/21 02:19:34;;;;;;;3.28;1.95;;;14.20;99.90;;;;;;5009657;28;20053;-44
2023/07/21 02:22:00;;;;;;;2.53;1.90;;;14.30;99.90;;;;;;5009323;28;20372;-45
2023/07/21 02:24:26;;;;;;;2.10;1.70;;;14.30;99.90;;;;;;5009825;28;20033;-45
2023/07/21 02:26:53;;;;;;;2.22;1.60;;;14.30;99.90;;;;;;5009785;28;20026;-45
2023/07/21 02:29:18;;;;;;;2.95;1.98;;;14.30;99.90;;;;;;5010090;28;20025;-47
2023/07/21 02:31:45;;;;;;;3.10;1.73;;;14.40;99.90;;;;;;5009676;28;20328;-48
2023/07/21 02:34:11;;;;;;;3.10;2.15;;;14.30;99.90;;;;;;5009015;28;20021;-49
2023/07/21 02:36:37;;;;;;;3.22;1.60;;;14.30;99.90;;;;;;5009910;28;20079;-47
2023/07/21 02:39:03;;;;;;;2.33;1.90;;;14.40;99.90;;;;;;5009880;28;20018;-45
2023/07/21 02:41:28;;;;;;;2.05;1.83;;;14.40;99.90;;;;;;5009745;28;20490;-47
2023/07/21 02:43:54;;;;;;;3.30;2.10;;;14.30;99.90;;;;;;5009511;28;20021;-48
2023/07/21 02:46:19;;;;;;;3.35;1.98;;;14.30;99.90;;;;;;5009751;28;20571;-45
2023/07/21 02:48:44;;;;;;;4.53;2.30;;;14.30;99.90;;;;;;5009150;28;20030;-45
2023/07/21 02:51:10;;;;;;;5.35;2.40;;;14.30;99.90;;;;;;5009637;28;20022;-47
2023/07/21 02:53:36;;;;;;;3.78;2.50;;;14.30;99.90;;;;;;5008848;28;20120;-46
2023/07/21 02:56:05;;;;;;;3.15;2.00;;;14.30;99.90;;;;;;5009281;28;20470;-45
2023/07/21 02:58:32;;;;;;;3.80;2.50;;;14.20;99.90;;;;;;5002028;28;20014;-48
2023/07/21 03:00:58;;;;;;;3.10;2.20;;;14.30;99.90;;;;;;5002589;28;20101;-47
2023/07/21 03:03:25;;;;;;;2.72;2.15;;;14.20;99.90;;;;;;5002465;28;20061;-45
2023/07/21 03:05:52;;;;;;;3.92;2.58;;;14.20;99.90;;;;;;5001485;28;20025;-46
2023/07/21 03:08:28;;;;;;;9.50;2.55;;;14.30;99.90;;;;;;5003360;28;20033;-45
2023/07/21 03:10:57;;;;;;;4.80;2.90;;;14.30;99.90;;;;;;5001921;28;20645;-45
2023/07/21 03:13:24;;;;;;;3.40;2.55;;;14.30;99.90;;;;;;5008841;28;20399;-47
2023/07/21 03:15:50;;;;;;;3.45;2.30;;;14.30;99.90;;;;;;5009227;28;20037;-46
2023/07/21 03:18:15;;;;;;;3.50;2.15;;;14.20;99.90;;;;;;5009530;28;20018;-47
2023/07/21 03:20:41;;;;;;;4.63;2.20;;;14.30;99.90;;;;;;5012557;28;20018;-45
2023/07/21 03:23:07;;;;;;;3.40;2.33;;;14.30;99.90;;;;;;5012653;28;20487;-48
2023/07/21 03:25:34;;;;;;;5.32;2.22;;;14.30;99.90;;;;;;5013065;28;20050;-45
2023/07/21 03:27:59;;;;;;;2.85;2.13;;;14.30;99.90;;;;;;5013048;28;20022;-46
2023/07/21 03:30:25;;;;;;;5.65;2.67;;;14.30;99.90;;;;;;5012835;28;20165;-46
2023/07/21 03:32:50;;;;;;;4.53;2.92;;;14.30;99.90;;;;;;5012631;28;20088;-46
2023/07/21 03:35:16;;;;;;;4.72;3.03;;;14.20;99.90;;;;;;5013212;28;20029;-47
2023/07/21 03:37:42;;;;;;;5.55;2.80;;;14.10;99.90;;;;;;5013014;28;20498;-47
2023/07/21 03:40:09;;;;;;;4.15;2.33;;;14.10;99.90;;;;;;5012985;28;20056;-47
2023/07/21 03:42:35;;;;;;;4.97;2.60;;;14.00;99.90;;;;;;5012399;28;20014;-50
2023/07/21 03:45:04;;;;;;;2.97;2.50;;;14.00;99.90;;;;;;5012698;28;20045;-47
2023/07/21 03:47:33;;;;;;;5.03;2.78;;;13.90;99.90;;;;;;5013128;28;20029;-49
2023/07/21 03:49:59;;;;;;;6.28;3.47;;;13.80;99.90;;;;;;5012645;28;20083;-47
2023/07/21 03:52:27;;;;;;;6.43;2.85;;;13.90;99.90;;;;;;5012207;28;20463;-45
2023/07/21 03:54:52;;;;;;;5.32;3.05;;;13.80;99.90;;;;;;5012379;28;20077;-45
2023/07/21 03:57:18;;;;;;;3.63;2.95;;;13.80;99.90;;;;;;5013090;28;20269;-46
2023/07/21 03:59:43;;;;;;;3.25;2.70;;;13.80;99.90;;;;;;5012521;28;20030;-46
2023/07/21 04:02:10;;;;;;;6.10;2.92;;;13.80;99.90;;;;;;5012273;28;20045;-46
2023/07/21 04:04:35;;;;;;;6.40;2.67;;;13.80;99.90;;;;;;5012621;28;20212;-45
2023/07/21 04:07:02;;;;;;;4.25;3.03;;;13.80;99.90;;;;;;5012476;28;20037;-46
2023/07/21 04:09:28;;;;;;;4.25;3.40;;;13.80;99.90;;;;;;5012342;28;20037;-48
2023/07/21 04:11:53;;;;;;;4.22;3.25;;;13.90;99.90;;;;;;5011917;28;20026;-47
2023/07/21 04:14:19;;;;;;;4.53;2.85;;;13.90;99.90;;;;;;5012521;28;20017;-47
2023/07/21 04:16:45;;;;;;;4.78;3.13;;;14.00;99.90;;;;;;5010886;28;20056;-46
2023/07/21 04:19:11;;;;;;;4.07;2.92;;;14.00;99.90;;;;;;5012382;28;20014;-47
2023/07/21 04:21:37;;;;;;;3.97;2.78;;;14.00;99.90;;;;;;5011743;28;20479;-47
2023/07/21 04:24:02;;;;;;;6.20;2.95;;;14.00;99.90;;;;;;5011548;28;20136;-45
2023/07/21 04:26:28;;;;;;;3.95;2.53;;;14.10;99.90;;;;;;5012247;28;20025;-47
2023/07/21 04:28:53;;;;;;;5.20;2.97;;;14.20;99.90;;;;;;5011819;28;20100;-46
2023/07/21 04:31:21;;;;;;;5.47;2.78;;;14.20;99.90;;;;;;5011140;28;20076;-47
2023/07/21 04:33:48;;;;;;;4.88;2.58;;;14.30;99.90;;;;;;5011495;28;20386;-46
2023/07/21 04:36:14;;;;;;;3.58;2.67;;;14.30;99.90;;;;;;5011875;28;20025;-48
2023/07/21 04:38:39;;;;;;;4.15;3.05;;;14.40;99.90;;;;;;5012138;28;20018;-46
2023/07/21 04:41:05;;;;;;;3.65;2.83;;;14.40;99.90;;;;;;5011788;28;20037;-46
2023/07/21 04:43:30;;;;;;;3.13;2.50;;;14.50;99.90;;;;;;5011502;28;20029;-46
2023/07/21 04:45:56;;;;;;;4.68;2.90;;;14.60;99.90;;;;;;5010559;28;20021;-45
2023/07/21 04:48:21;;;;;;;5.10;2.50;;;14.60;99.90;;;;;;5011976;28;20041;-45
2023/07/21 04:50:51;;;;;;;4.53;2.78;;;14.70;99.90;;;;;;5011752;28;20041;-47
2023/07/21 04:53:17;;;;;;;4.60;2.72;;;14.70;99.90;;;;;;5011072;28;20026;-45
2023/07/21 04:55:42;;;;;;;4.55;2.45;;;14.70;99.90;;;;;;5011429;28;20376;-45
2023/07/21 04:58:08;;;;;;;4.85;2.42;;;14.70;99.90;;;;;;5011400;28;20029;-46
2023/07/21 05:00:34;;;;;;;4.35;2.85;;;14.80;99.90;;;;;;5011599;28;20033;-46
2023/07/21 05:03:00;;;;;;;3.42;2.65;;;14.80;99.90;;;;;;5010772;28;20049;-45
2023/07/21 05:05:27;;;;;;;9.00;2.92;;;14.90;99.90;;;;;;5011203;28;20022;-47
2023/07/21 05:07:53;;;;;;;5.18;2.30;;;14.90;99.90;;;;;;5011111;28;20026;-45
2023/07/21 05:10:18;;;;;;;2.83;2.60;;;14.90;99.90;;;;;;5010867;28;20025;-44
2023/07/21 05:12:44;;;;;;;6.70;2.70;;;15.00;99.90;;;;;;5009381;28;20434;-45
2023/07/21 05:15:09;;;;;;;4.30;2.30;;;15.00;99.90;;;;;;5010854;28;20108;-45
2023/07/21 05:17:35;;;;;;;3.80;2.47;;;15.00;99.90;;;;;;5011060;28;20393;-44
2023/07/21 05:20:03;;;;;;;9.10;2.58;;;15.00;99.90;;;;;;5010947;28;20032;-45
2023/07/21 05:22:29;;;;;;;3.10;2.17;;;15.00;99.90;;;;;;5010900;28;20483;-45
2023/07/21 05:24:55;;;;;;;4.90;2.50;;;15.20;99.90;;;;;;5011351;28;20033;-45
2023/07/21 05:27:21;;;;;;;3.78;2.40;;;15.20;99.90;;;;;;5010905;28;20029;-46
2023/07/21 05:29:47;;;;;;;6.10;2.95;;;15.30;99.90;;;;;;5011043;28;20383;-45
2023/07/21 05:32:15;;;;;;;4.03;2.40;;;15.30;99.90;;;;;;5025379;28;20018;-46
2023/07/21 05:34:41;;;;;;;5.20;2.67;;;15.40;99.90;;;;;;5010828;28;20010;-45
2023/07/21 05:37:08;;;;;;;2.80;2.20;;;15.40;99.90;;;;;;5010280;28;20380;-45
2023/07/21 05:39:35;;;;;;;3.53;1.90;;;15.50;99.90;;;;;;5010560;28;20160;-46
2023/07/21 05:42:00;;;;;;;3.92;2.10;;;15.50;99.90;;;;;;5009444;28;20014;-45
2023/07/21 05:44:29;;;;;;;3.53;2.42;;;15.60;99.90;;;;;;5010821;28;20403;-45
2023/07/21 05:46:55;;;;;;;4.70;2.53;;;15.70;99.90;;;;;;5025549;28;20479;-46
2023/07/21 05:49:21;;;;;;;3.72;2.20;;;15.70;99.90;;;;;;5010364;28;20056;-46
2023/07/21 05:51:48;;;;;;;3.03;1.80;;;15.80;99.90;;;;;;5010065;28;20022;-46
2023/07/21 05:54:13;;;;;;;9.05;2.83;;;15.90;99.90;;;;;;5008662;28;20157;-46
2023/07/21 05:56:39;;;;;;;3.75;2.15;;;15.90;99.90;;;;;;5010209;28;20025;-45
2023/07/21 05:59:04;;;;;;;2.00;1.73;;;15.90;99.90;;;;;;5009013;28;20383;-46
2023/07/21 06:01:30;;;;;;;6.72;2.00;;;15.90;99.90;;;;;;5009056;28;20022;-47
2023/07/21 06:03:56;;;;;;;4.13;2.38;;;15.90;99.90;;;;;;5009673;28;20029;-45
2023/07/21 06:06:23;;;;;;;3.10;2.00;;;16.00;99.90;;;;;;5010114;28;20026;-45
2023/07/21 06:08:48;;;;;;;3.55;2.08;;;16.00;99.90;;;;;;5010156;28;20010;-45
2023/07/21 06:11:14;;;;;;;5.30;1.95;;;16.10;99.90;;;;;;5010184;28;20022;-46
2023/07/21 06:13:39;;;;;;;3.15;2.22;;;16.10;99.90;;;;;;5024725;28;20018;-46
2023/07/21 06:16:05;;;;;;;3.28;2.03;;;16.30;99.90;;;;;;5025175;28;20038;-47
2023/07/21 06:18:30;;;;;;;4.53;2.45;;;16.40;99.90;;;;;;5010026;28;20022;-47
2023/07/21 06:20:56;;;;;;;3.47;1.90;;;16.50;99.90;;;;;;5009661;28;20530;-45
2023/07/21 06:23:23;;;;;;;5.15;2.00;;;16.60;99.90;;;;;;5009013;28;20029;-45
2023/07/21 06:25:48;;;;;;;4.22;2.25;;;16.60;99.90;;;;;;5008262;28;20041;-45
2023/07/21 06:28:14;;;;;;;2.83;2.22;;;16.60;99.90;;;;;;5024565;28;20553;-46
2023/07/21 06:30:39;;;;;;;3.05;1.85;;;16.70;99.90;;;;;;5024651;28;20034;-46
2023/07/21 06:33:05;;;;;;;2.08;1.85;;;16.80;99.90;;;;;;5008827;28;20026;-46
2023/07/21 06:35:31;;;;;;;3.42;1.80;;;16.80;99.90;;;;;;5009454;28;20030;-45
2023/07/21 06:37:57;;;;;;;4.80;2.30;;;16.90;99.90;;;;;;5009446;28;20045;-46
2023/07/21 06:40:23;;;;;;;6.85;2.25;;;16.80;99.90;;;;;;5009699;28;20436;-45
2023/07/21 06:42:49;;;;;;;3.25;1.85;;;16.90;99.90;;;;;;5009612;28;20018;-46
2023/07/21 06:45:15;;;;;;;3.80;2.00;;;17.00;99.90;;;;;;5009945;28;20036;-46
2023/07/21 06:47:40;;;;;;;4.53;2.15;;;17.10;99.90;;;;;;5009706;28;20044;-46
2023/07/21 06:50:06;;;;;;;4.85;2.03;;;17.20;99.90;;;;;;5009484;28;20034;-46
2023/07/21 06:52:32;;;;;;;4.55;2.08;;;17.30;99.90;;;;;;5008866;28;20028;-46
2023/07/21 06:54:58;;;;;;;3.67;2.13;;;17.50;99.90;;;;;;5009252;28;20334;-46
2023/07/21 06:57:24;;;;;;;3.47;1.92;;;17.70;99.90;;;;;;5009316;28;20018;-46
2023/07/21 06:59:49;;;;;;;2.17;1.80;;;17.80;99.90;;;;;;5009411;28;20017;-46
2023/07/21 07:02:15;;;;;;;4.88;2.30;;;17.90;99.90;;;;;;5008763;28;20083;-46
2023/07/21 07:04:41;;;;;;;3.50;2.28;;;18.00;99.90;;;;;;5009701;28;20485;-48
2023/07/21 07:07:07;;;;;;;3.45;1.70;;;18.10;99.90;;;;;;5009084;28;20376;-46
2023/07/21 07:09:33;;;;;;;4.57;2.08;;;18.30;99.90;;;;;;5009459;28;20033;-46
2023/07/21 07:11:58;;;;;;;3.88;1.98;;;18.30;99.90;;;;;;5008912;28;20274;-46
2023/07/21 07:14:24;;;;;;;5.82;2.10;;;18.40;99.90;;;;;;5009330;28;20379;-47
2023/07/21 07:16:50;;;;;;;3.03;1.50;;;18.60;99.90;;;;;;5009368;28;20018;-50
2023/07/21 07:19:16;;;;;;;5.25;1.83;;;18.70;99.90;;;;;;5009375;28;20498;-45
2023/07/21 07:21:42;;;;;;;2.42;1.75;;;18.80;99.90;;;;;;5009470;28;20390;-45
2023/07/21 07:24:09;;;;;;;3.97;2.00;;;18.80;99.90;;;;;;5010255;28;20026;-46
2023/07/21 07:26:35;;;;;;;4.38;2.00;;;18.70;99.90;;;;;;5009858;28;20585;-47
2023/07/21 07:29:03;;;;;;;4.20;1.85;;;18.60;99.90;;;;;;5008832;28;20093;-47
2023/07/21 07:31:30;;;;;;;3.13;1.70;;;18.50;99.90;;;;;;5008754;28;20038;-45
2023/07/21 07:33:56;;;;;;;2.65;2.00;;;18.60;99.90;;;;;;5008338;28;20029;-47
2023/07/21 07:36:21;;;;;;;4.97;1.80;;;18.70;99.90;;;;;;5008942;28;20040;-49
2023/07/21 07:38:47;;;;;;;2.33;1.80;;;18.70;99.90;;;;;;5008190;28;20130;-46
2023/07/21 07:41:13;;;;;;;2.40;1.92;;;18.80;99.90;;;;;;5007831;28;20075;-47
2023/07/21 07:43:38;;;;;;;2.60;1.90;;;18.90;99.90;;;;;;5008429;28;20100;-46
2023/07/21 07:46:07;;;;;;;4.38;2.08;;;19.00;99.90;;;;;;5008923;28;20029;-47
2023/07/21 07:48:33;;;;;;;2.35;1.70;;;19.10;99.90;;;;;;5007847;28;20096;-46
2023/07/21 07:51:02;;;;;;;3.10;1.90;;;19.10;99.90;;;;;;5008080;28;20037;-46
2023/07/21 07:53:28;;;;;;;4.20;1.98;;;19.30;99.90;;;;;;5008002;28;20115;-47
2023/07/21 07:55:54;;;;;;;2.17;1.65;;;19.40;99.90;;;;;;5008787;28;20101;-47
2023/07/21 07:58:20;;;;;;;2.97;1.88;;;19.40;99.90;;;;;;5008515;28;20530;-47
2023/07/21 08:00:45;;;;;;;6.30;1.95;;;19.50;99.90;;;;;;5008984;28;20037;-50
2023/07/21 08:03:11;;;;;;;1.92;1.60;;;19.60;99.80;;;;;;5023541;28;20053;-48
2023/07/21 08:05:38;;;;;;;2.10;1.58;;;19.70;99.60;;;;;;5009944;28;20227;-46
2023/07/21 08:08:05;;;;;;;2.58;1.75;;;19.90;99.70;;;;;;5012294;28;20088;-49
2023/07/21 08:10:31;;;;;;;3.63;2.00;;;19.90;99.50;;;;;;5012320;28;20314;-47
2023/07/21 08:12:58;;;;;;;4.40;2.10;;;20.20;98.90;;;;;;5011515;28;20545;-49
2023/07/21 08:15:23;;;;;;;3.65;1.75;;;20.50;98.10;;;;;;5012121;28;20030;-46
2023/07/21 08:17:50;;;;;;;5.38;1.90;;;20.70;97.90;;;;;;5012295;28;20033;-47
2023/07/21 08:20:16;;;;;;;5.13;2.00;;;21.00;97.90;;;;;;5027329;28;20034;-47
2023/07/21 08:22:42;;;;;;;3.53;2.00;;;21.30;97.50;;;;;;5011663;28;20018;-47
2023/07/21 08:25:07;;;;;;;4.43;1.90;;;21.60;95.90;;;;;;5012133;28;20122;-49
2023/07/21 08:27:34;;;;;;;3.20;1.63;;;21.70;95.10;;;;;;5011978;28;20033;-46
2023/07/21 08:29:59;;;;;;;2.40;2.00;;;22.00;94.00;;;;;;5011845;28;20080;-48
2023/07/21 08:32:25;;;;;;;3.53;1.70;;;22.40;93.40;;;;;;5011682;28;20030;-48
2023/07/21 08:34:52;;;;;;;5.13;1.50;;;22.40;93.50;;;;;;5011856;28;20017;-47
2023/07/21 08:37:17;;;;;;;2.33;1.25;;;23.50;92.40;;;;;;5010748;28;20053;-49
2023/07/21 08:39:43;;;;;;;2.50;1.35;;;24.40;90.40;;;;;;5011910;28;20049;-48
2023/07/21 08:42:12;;;;;;;2.10;1.55;;;25.20;88.00;;;;;;5010202;28;20440;-47
2023/07/21 08:44:39;;;;;;;3.85;2.00;;;25.50;84.20;;;;;;5011923;28;20076;-52
2023/07/21 08:47:05;;;;;;;4.25;1.33;;;25.70;82.90;;;;;;5011738;28;20022;-47
2023/07/21 08:49:31;;;;;;;2.42;1.25;;;25.90;81.00;;;;;;5011437;28;20462;-50
2023/07/21 08:51:56;;;;;;;3.65;1.40;;;26.50;79.70;;;;;;5009869;28;20045;-48
2023/07/21 08:54:22;;;;;;;2.47;1.40;;;27.10;76.20;;;;;;5011302;28;20022;-47
2023/07/21 08:56:48;;;;;;;1.67;1.25;;;27.70;74.80;;;;;;5011516;28;20391;-50
2023/07/21 08:59:13;;;;;;;2.83;2.00;;;28.60;71.80;;;;;;5010859;28;20083;-50
2023/07/21 09:01:39;;;;;;;2.67;1.20;;;29.70;69.40;;;;;;5010950;28;20036;-47
2023/07/21 09:04:22;;;;;;;1.17;1.08;;;29.40;66.80;;;;;;5011126;28;20041;-47
2023/07/21 09:06:52;;;;;;;1.23;1.20;;;29.50;65.40;;;;;;5011161;28;20597;-45
2023/07/21 09:09:19;;;;;;;2.38;1.50;;;29.50;67.00;;;;;;5010997;28;20033;-45
2023/07/21 09:11:45;;;;;;;2.28;1.30;;;30.10;64.20;;;;;;5010876;28;20025;-46
2023/07/21 09:14:10;;;;;;;2.40;1.30;;;31.10;64.10;;;;;;5010517;28;20038;-46
2023/07/21 09:16:38;;;;;;;2.22;1.00;;;31.10;62.50;;;;;;5010974;28;20450;-46
2023/07/21 09:19:05;;;;;;;1.30;1.13;;;31.80;62.20;;;;;;5026060;28;20018;-48
2023/07/21 09:21:31;;;;;;;2.97;1.30;;;31.80;61.50;;;;;;5010615;28;20160;-47
2023/07/21 09:24:04;;;;;;;1.70;1.30;;;32.60;60.00;;;;;;5009050;28;20113;-46
2023/07/21 09:26:30;;;;;;;1.30;1.20;;;32.90;58.20;;;;;;5009340;28;20024;-47
2023/07/21 09:28:56;;;;;;;1.95;1.10;;;32.90;58.70;;;;;;5009280;28;20021;-46
2023/07/21 09:31:37;;;;;;;1.65;1.30;;;33.30;58.20;;;;;;5008972;28;20022;-46
2023/07/21 09:34:06;;;;;;;3.10;1.20;;;32.50;56.70;;;;;;5008837;28;20133;-47
2023/07/21 09:36:33;;;;;;;1.80;1.45;;;31.70;57.70;;;;;;5009157;28;20434;-48
2023/07/21 09:39:03;;;;;;;1.95;1.67;;;30.50;59.70;;;;;;5010448;28;20109;-44
2023/07/21 09:41:32;;;;;;;2.95;1.83;;;29.70;61.10;;;;;;4992850;28;20026;-47
2023/07/21 09:43:58;;;;;;;4.68;1.70;;;28.60;62.30;;;;;;5010392;28;20037;-45
2023/07/21 09:46:24;;;;;;;2.63;1.73;;;28.20;64.70;;;;;;5010581;28;20044;-48
2023/07/21 09:48:49;;;;;;;1.90;1.50;;;27.40;66.10;;;;;;5009687;28;20479;-45
2023/07/21 09:51:17;;;;;;;2.53;1.80;;;27.00;66.40;;;;;;5027144;28;20577;-48
2023/07/21 09:53:45;;;;;;;4.22;1.92;;;27.60;66.00;;;;;;5022236;28;20399;-50
2023/07/21 09:56:12;;;;;;;2.15;1.45;;;27.20;65.50;;;;;;5002976;28;20035;-51
2023/07/21 09:59:00;;;;;;;1.73;1.63;;;26.80;66.80;;;;;;5017787;28;20025;-49
2023/07/21 10:01:26;;;;;;;4.18;1.55;;;26.90;66.50;;;;;;5004054;28;20025;-48
2023/07/21 10:03:52;;;;;;;2.20;1.65;;;27.10;65.80;;;;;;5001891;28;20030;-50
2023/07/21 10:06:19;;;;;;;2.15;1.70;;;26.60;66.20;;;;;;5004603;28;20065;-48
2023/07/21 10:08:45;;;;;;;2.95;1.83;;;26.90;66.50;;;;;;5001884;28;20034;-46
2023/07/21 10:11:12;;;;;;;2.72;1.67;;;26.50;66.60;;;;;;5004343;28;20092;-47
2023/07/21 10:13:46;;;;;;;2.25;1.52;;;26.20;67.90;;;;;;5001842;28;20040;-46
2023/07/21 10:16:11;;;;;;;2.50;1.60;;;26.10;66.80;;;;;;5012094;28;20033;-47
2023/07/21 10:19:07;;;;;;;3.22;1.48;;;25.70;67.80;;;;;;5017388;28;20360;-47
2023/07/21 10:21:50;;;;;;;3.13;2.10;;;25.40;67.70;;;;;;5004623;28;20017;-46
2023/07/21 10:24:27;;;;;;;3.95;1.70;;;24.80;70.20;;;;;;5007508;28;20436;-46
2023/07/21 10:27:00;;;;;;;4.65;2.25;;;24.50;70.60;;;;;;5000830;28;20054;-47
2023/07/21 10:29:25;;;;;;;2.45;2.08;;;24.20;71.80;;;;;;5001018;28;20033;-47
2023/07/21 10:31:53;;;;;;;5.28;2.03;;;24.00;72.50;;;;;;5003432;28;20163;-47
2023/07/21 10:34:24;;;;;;;3.38;1.83;;;23.60;72.40;;;;;;5002479;28;20037;-48
2023/07/21 10:36:52;;;;;;;4.75;2.42;;;23.00;74.20;;;;;;5004063;28;20019;-50
2023/07/21 10:39:53;;;;;;;2.30;2.10;;;22.70;75.20;;;;;;5004005;28;20018;-48
2023/07/21 10:42:19;;;;;;;3.33;1.90;;;24.40;74.70;;;;;;4984001;28;20042;-48
2023/07/21 10:44:47;;;;;;;1.95;1.60;;;26.10;71.80;;;;;;5003476;28;20033;-48
2023/07/21 10:47:18;;;;;;;1.98;1.30;;;26.90;68.50;;;;;;5002100;28;20036;-47
2023/07/21 10:49:45;;;;;;;2.03;1.50;;;28.30;67.50;;;;;;5002417;28;20026;-48
2023/07/21 10:52:10;;;;;;;4.28;1.80;;;29.30;64.90;;;;;;5006661;28;20377;-48
2023/07/21 10:54:37;;;;;;;2.00;1.60;;;29.90;63.80;;;;;;5006772;28;20101;-50
2023/07/21 10:57:03;;;;;;;1.60;1.27;;;30.40;61.60;;;;;;5001701;28;20468;-48
2023/07/21 10:59:32;;;;;;;3.00;1.35;;;31.00;62.20;;;;;;5003750;28;20026;-49
2023/07/21 11:01:58;;;;;;;3.75;1.40;;;31.40;61.10;;;;;;5002098;28;20040;-47
2023/07/21 11:04:24;;;;;;;1.67;1.40;;;32.40;58.60;;;;;;5013870;28;20507;-46
2023/07/21 11:06:52;;;;;;;1.55;1.25;;;32.70;58.60;;;;;;5008070;28;20034;-46
2023/07/21 11:09:21;;;;;;;3.60;1.45;;;32.00;55.80;;;;;;5002947;28;20102;-49
2023/07/21 11:11:48;;;;;;;2.10;1.33;;;32.10;57.10;;;;;;5002968;28;20026;-45
2023/07/21 11:14:20;;;;;;;1.48;1.38;;;32.40;57.10;;;;;;5004912;28;20037;-46
2023/07/21 11:16:57;;;;;;;1.73;1.40;;;33.10;57.70;;;;;;5009295;28;20026;-45
2023/07/21 11:19:24;;;;;;;1.20;1.10;;;33.30;55.40;;;;;;5008814;28;20105;-45
2023/07/21 11:21:50;;;;;;;1.40;1.20;;;33.00;56.40;;;;;;5010361;28;20029;-48
2023/07/21 11:24:17;;;;;;;1.35;1.20;;;33.10;55.40;;;;;;5003808;28;20034;-46
2023/07/21 11:26:44;;;;;;;1.83;1.27;;;33.30;56.00;;;;;;5002063;28;20026;-47
2023/07/21 11:29:09;;;;;;;1.88;1.30;;;32.40;55.70;;;;;;5003151;28;20286;-45
2023/07/21 11:31:36;;;;;;;3.72;1.67;;;30.50;56.30;;;;;;5006188;28;20518;-47
2023/07/21 11:34:02;;;;;;;2.92;1.10;;;29.20;57.80;;;;;;5001762;28;20521;-48
2023/07/21 11:36:29;;;;;;;1.98;1.27;;;28.80;58.90;;;;;;5002685;28;20038;-48
2023/07/21 11:39:10;;;;;;;4.18;1.80;;;28.10;60.30;;;;;;4998307;28;20019;-47
2023/07/21 11:41:42;;;;;;;1.55;1.20;;;27.80;61.20;;;;;;5010277;28;20088;-47
2023/07/21 11:44:30;;;;;;;1.10;1.00;;;27.20;62.80;;;;;;5011312;28;20018;-50
2023/07/21 11:47:04;;;;;;;2.20;1.48;;;26.70;64.50;;;;;;5011954;28;20040;-47
2023/07/21 11:49:31;;;;;;;2.88;2.00;;;26.30;64.40;;;;;;5010061;28;20426;-49
2023/07/21 11:52:03;;;;;;;1.98;1.45;;;25.90;66.40;;;;;;5009302;28;20041;-48
2023/07/21 11:54:35;;;;;;;1.63;1.52;;;25.60;65.80;;;;;;5009984;28;20058;-50
2023/07/21 11:57:01;;;;;;;2.13;1.42;;;25.20;68.10;;;;;;5007130;28;20472;-48
2023/07/21 11:59:26;;;;;;;4.05;1.75;;;24.70;69.70;;;;;;5006670;28;20077;-46
2023/07/21 12:01:55;;;;;;;4.50;2.05;;;24.10;73.90;;;;;;5003925;28;20463;-45
2023/07/21 12:04:22;;;;;;;7.93;2.72;;;23.50;79.40;;;;;;5005322;28;20022;-47
2023/07/21 12:06:48;;;;;;;3.67;2.15;;;22.70;81.40;;;;;;5005026;28;20037;-45
2023/07/21 12:09:13;;;;;;;4.05;1.58;;;22.00;83.50;;;;;;5005674;28;20472;-47
2023/07/21 12:11:39;;;;;;;4.13;2.00;;;21.20;84.70;;;;;;5005461;28;20368;-54
2023/07/21 12:14:05;;;;;;;2.65;1.80;;;20.60;88.80;;;;;;5019467;28;20081;-53
2023/07/21 12:16:33;;;;;;;2.22;1.95;;;20.20;89.80;;;;;;5006170;28;20022;-54
2023/07/21 12:18:59;;;;;;;4.60;2.15;;;19.80;90.50;;;;;;5004037;28;20014;-53
2023/07/21 12:21:25;;;;;;;4.07;2.10;;;19.40;92.00;;;;;;5008098;28;20028;-54
2023/07/21 12:23:51;;;;;;;5.80;2.30;;;19.20;93.30;;;;;;5008295;28;20030;-53
2023/07/21 12:26:18;;;;;;;3.22;2.38;;;19.10;94.40;;;;;;5006199;28;20022;-53
2023/07/21 12:28:45;;;;;;;4.65;2.08;;;19.00;95.30;;;;;;5017804;28;20049;-54
2023/07/21 12:31:11;;;;;;;2.17;1.95;;;19.10;98.40;;;;;;5004827;28;20023;-53
2023/07/21 12:33:39;;;;;;;2.97;2.17;;;19.30;99.90;;;;;;5004690;28;20025;-54
2023/07/21 12:36:05;;;;;;;3.33;2.00;;;19.50;99.90;;;;;;5007060;28;20022;-54
2023/07/21 12:38:31;;;;;;;2.65;2.20;;;19.70;99.80;;;;;;5011498;28;20029;-54
2023/07/21 12:40:57;;;;;;;3.85;2.33;;;19.90;99.90;;;;;;5011597;28;20686;-54
2023/07/21 12:43:22;;;;;;;2.80;2.25;;;20.10;99.90;;;;;;5024133;28;20115;-54
2023/07/21 12:45:48;;;;;;;2.67;2.20;;;20.30;99.90;;;;;;5011777;28;20022;-54
2023/07/21 12:48:14;;;;;;;2.10;1.90;;;20.40;99.90;;;;;;5026648;28;20383;-55